createdAt,value
2017-06-26T00:00:35.839Z,997.41
2017-06-26T00:01:35.879Z,997.41
2017-06-26T00:02:35.920Z,997.4
2017-06-26T00:03:35.961Z,997.41
2017-06-26T00:04:36.003Z,997.38
2017-06-26T00:05:36.041Z,997.41
2017-06-26T00:06:36.082Z,997.39
2017-06-26T00:07:36.123Z,997.38
2017-06-26T00:08:36.162Z,997.35
2017-06-26T00:09:36.203Z,997.33
2017-06-26T00:10:36.245Z,997.3
2017-06-26T00:11:36.285Z,997.26
2017-06-26T00:12:36.325Z,997.24
2017-06-26T00:13:36.365Z,997.25
2017-06-26T00:14:36.412Z,997.25
2017-06-26T00:15:36.449Z,997.27
2017-06-26T00:16:36.488Z,997.26
2017-06-26T00:17:36.531Z,997.26
2017-06-26T00:18:36.569Z,997.26
2017-06-26T00:19:36.609Z,997.25
2017-06-26T00:20:36.650Z,997.27
2017-06-26T00:21:36.689Z,997.29
2017-06-26T00:22:36.731Z,997.26
2017-06-26T00:23:36.791Z,997.21
2017-06-26T00:24:36.811Z,997.21
2017-06-26T00:25:36.853Z,997.19
2017-06-26T00:26:36.893Z,997.15
2017-06-26T00:27:36.933Z,997.19
2017-06-26T00:28:36.974Z,997.17
2017-06-26T00:29:37.015Z,997.13
2017-06-26T00:30:37.055Z,997.17
2017-06-26T00:31:37.095Z,997.18
2017-06-26T00:32:37.136Z,997.13
2017-06-26T00:33:37.177Z,997.12
2017-06-26T00:34:37.215Z,997.09
2017-06-26T00:35:37.257Z,997.09
2017-06-26T00:36:37.297Z,997.08
2017-06-26T00:37:37.338Z,997.04
2017-06-26T00:38:37.377Z,997.03
2017-06-26T00:39:37.418Z,997.06
2017-06-26T00:40:37.460Z,997
2017-06-26T00:41:37.500Z,996.97
2017-06-26T00:42:37.539Z,997.05
2017-06-26T00:43:37.581Z,997
2017-06-26T00:44:37.625Z,996.97
2017-06-26T00:45:37.660Z,996.97
2017-06-26T00:46:37.701Z,996.94
2017-06-26T00:47:37.742Z,996.93
2017-06-26T00:48:37.783Z,996.84
2017-06-26T00:49:37.823Z,996.83
2017-06-26T00:50:37.864Z,996.82
2017-06-26T00:51:37.904Z,996.8
2017-06-26T00:52:37.944Z,996.8
2017-06-26T00:53:37.984Z,996.78
2017-06-26T00:54:38.025Z,996.85
2017-06-26T00:55:38.068Z,996.8
2017-06-26T00:56:38.105Z,996.8
2017-06-26T00:57:38.145Z,996.85
2017-06-26T00:58:38.189Z,996.82
2017-06-26T00:59:38.227Z,996.77
2017-06-26T01:00:38.268Z,996.72
2017-06-26T01:01:38.309Z,996.78
2017-06-26T01:02:38.349Z,996.78
2017-06-26T01:03:38.389Z,996.83
2017-06-26T01:04:38.430Z,996.84
2017-06-26T01:05:38.470Z,996.83
2017-06-26T01:06:38.511Z,996.84
2017-06-26T01:07:38.549Z,996.89
2017-06-26T01:08:38.595Z,996.91
2017-06-26T01:09:38.631Z,996.96
2017-06-26T01:10:38.672Z,996.87
2017-06-26T01:11:38.714Z,996.91
2017-06-26T01:12:38.754Z,996.9
2017-06-26T01:13:38.794Z,996.86
2017-06-26T01:14:38.835Z,996.87
2017-06-26T01:15:38.877Z,996.83
2017-06-26T01:16:38.915Z,996.87
2017-06-26T01:17:38.956Z,996.84
2017-06-26T01:18:38.996Z,996.85
2017-06-26T01:19:39.036Z,996.85
2017-06-26T01:20:39.075Z,996.87
2017-06-26T01:21:39.116Z,996.87
2017-06-26T01:22:39.157Z,996.85
2017-06-26T01:23:39.198Z,996.83
2017-06-26T01:24:39.238Z,996.8
2017-06-26T01:25:39.282Z,996.82
2017-06-26T01:26:39.319Z,996.78
2017-06-26T01:27:39.360Z,996.8
2017-06-26T01:28:39.399Z,996.8
2017-06-26T01:29:39.440Z,996.79
2017-06-26T01:30:39.481Z,996.78
2017-06-26T01:31:39.521Z,996.74
2017-06-26T01:32:39.559Z,996.71
2017-06-26T01:33:39.601Z,996.69
2017-06-26T01:34:39.641Z,996.73
2017-06-26T01:35:39.683Z,996.66
2017-06-26T01:36:39.721Z,996.66
2017-06-26T01:37:39.763Z,996.63
2017-06-26T01:38:39.802Z,996.61
2017-06-26T01:39:39.843Z,996.57
2017-06-26T01:40:39.883Z,996.56
2017-06-26T01:41:39.924Z,996.53
2017-06-26T01:42:39.964Z,996.55
2017-06-26T01:43:40.003Z,996.52
2017-06-26T01:44:40.044Z,996.53
2017-06-26T01:45:40.085Z,996.54
2017-06-26T01:46:40.125Z,996.44
2017-06-26T01:47:40.165Z,996.48
2017-06-26T01:48:40.205Z,996.58
2017-06-26T01:49:40.244Z,996.55
2017-06-26T01:50:40.287Z,996.55
2017-06-26T01:51:40.325Z,996.56
2017-06-26T01:52:40.365Z,996.54
2017-06-26T01:53:40.406Z,996.53
2017-06-26T01:54:40.448Z,996.51
2017-06-26T01:55:40.486Z,996.53
2017-06-26T01:56:40.531Z,996.51
2017-06-26T01:57:40.566Z,996.53
2017-06-26T01:58:40.606Z,996.46
2017-06-26T01:59:40.646Z,996.46
2017-06-26T02:00:40.687Z,996.46
2017-06-26T02:01:40.727Z,996.44
2017-06-26T02:02:40.767Z,996.43
2017-06-26T02:03:40.809Z,996.47
2017-06-26T02:04:40.848Z,996.46
2017-06-26T02:05:40.886Z,996.45
2017-06-26T02:06:40.926Z,996.45
2017-06-26T02:07:40.967Z,996.44
2017-06-26T02:08:41.007Z,996.45
2017-06-26T02:09:41.047Z,996.46
2017-06-26T02:10:41.087Z,996.47
2017-06-26T02:11:41.128Z,996.44
2017-06-26T02:12:41.169Z,996.41
2017-06-26T02:13:41.208Z,996.36
2017-06-26T02:14:41.248Z,996.35
2017-06-26T02:15:41.287Z,996.34
2017-06-26T02:16:41.327Z,996.34
2017-06-26T02:17:41.367Z,996.32
2017-06-26T02:18:41.407Z,996.28
2017-06-26T02:19:41.448Z,996.27
2017-06-26T02:20:41.487Z,996.25
2017-06-26T02:21:41.528Z,996.29
2017-06-26T02:22:41.568Z,996.29
2017-06-26T02:23:41.610Z,996.31
2017-06-26T02:24:41.648Z,996.26
2017-06-26T02:25:41.687Z,996.23
2017-06-26T02:26:41.729Z,996.18
2017-06-26T02:27:41.767Z,996.2
2017-06-26T02:28:41.808Z,996.2
2017-06-26T02:29:41.847Z,996.2
2017-06-26T02:30:41.887Z,996.16
2017-06-26T02:31:41.928Z,996.15
2017-06-26T02:32:41.967Z,996.12
2017-06-26T02:33:42.008Z,996.14
2017-06-26T02:34:42.049Z,996.14
2017-06-26T02:35:42.089Z,996.12
2017-06-26T02:36:42.128Z,996.11
2017-06-26T02:37:42.168Z,996.14
2017-06-26T02:38:42.208Z,996.09
2017-06-26T02:39:42.248Z,996.09
2017-06-26T02:40:42.288Z,996.08
2017-06-26T02:41:42.328Z,996.03
2017-06-26T02:42:42.368Z,996.04
2017-06-26T02:43:42.408Z,996.02
2017-06-26T02:44:42.448Z,996.09
2017-06-26T02:45:42.495Z,996.09
2017-06-26T02:46:42.529Z,996.08
2017-06-26T02:47:42.570Z,996.08
2017-06-26T02:48:42.610Z,996.02
2017-06-26T02:49:42.650Z,996.02
2017-06-26T02:50:42.690Z,995.96
2017-06-26T02:51:42.730Z,995.96
2017-06-26T02:52:42.770Z,995.93
2017-06-26T02:53:42.811Z,995.93
2017-06-26T02:54:42.850Z,995.93
2017-06-26T02:55:42.891Z,995.89
2017-06-26T02:56:42.931Z,995.85
2017-06-26T02:57:42.969Z,995.89
2017-06-26T02:58:43.012Z,995.94
2017-06-26T02:59:43.051Z,995.92
2017-06-26T03:00:43.091Z,995.93
2017-06-26T03:01:43.131Z,995.94
2017-06-26T03:02:43.171Z,995.95
2017-06-26T03:03:43.212Z,995.93
2017-06-26T03:04:43.251Z,995.92
2017-06-26T03:05:43.293Z,995.95
2017-06-26T03:06:43.333Z,995.9
2017-06-26T03:07:43.372Z,995.86
2017-06-26T03:08:43.412Z,995.89
2017-06-26T03:09:43.452Z,995.87
2017-06-26T03:10:43.493Z,995.87
2017-06-26T03:11:43.532Z,995.89
2017-06-26T03:12:43.574Z,995.92
2017-06-26T03:13:43.613Z,995.92
2017-06-26T03:14:43.653Z,995.93
2017-06-26T03:15:43.693Z,995.88
2017-06-26T03:16:43.734Z,995.84
2017-06-26T03:17:43.774Z,995.85
2017-06-26T03:18:43.812Z,995.84
2017-06-26T03:19:43.855Z,995.82
2017-06-26T03:20:43.895Z,995.82
2017-06-26T03:21:43.937Z,995.8
2017-06-26T03:22:43.974Z,995.78
2017-06-26T03:23:44.016Z,995.81
2017-06-26T03:24:44.055Z,995.79
2017-06-26T03:25:44.096Z,995.76
2017-06-26T03:26:44.135Z,995.78
2017-06-26T03:27:44.175Z,995.81
2017-06-26T03:28:44.215Z,995.74
2017-06-26T03:29:44.255Z,995.78
2017-06-26T03:30:44.297Z,995.79
2017-06-26T03:31:44.336Z,995.73
2017-06-26T03:32:44.375Z,995.79
2017-06-26T03:33:44.416Z,995.75
2017-06-26T03:34:44.456Z,995.78
2017-06-26T03:35:44.496Z,995.76
2017-06-26T03:36:44.538Z,995.72
2017-06-26T03:37:44.577Z,995.75
2017-06-26T03:38:44.617Z,995.72
2017-06-26T03:39:44.657Z,995.72
2017-06-26T03:40:44.696Z,995.7
2017-06-26T03:41:44.738Z,995.69
2017-06-26T03:42:44.778Z,995.71
2017-06-26T03:43:44.819Z,995.73
2017-06-26T03:44:44.857Z,995.72
2017-06-26T03:45:44.898Z,995.75
2017-06-26T03:46:44.939Z,995.7
2017-06-26T03:47:44.980Z,995.7
2017-06-26T03:48:45.020Z,995.67
2017-06-26T03:49:45.061Z,995.66
2017-06-26T03:50:45.098Z,995.62
2017-06-26T03:51:45.140Z,995.61
2017-06-26T03:52:45.180Z,995.63
2017-06-26T03:53:45.219Z,995.68
2017-06-26T03:54:45.265Z,995.65
2017-06-26T03:55:45.300Z,995.65
2017-06-26T03:56:45.340Z,995.65
2017-06-26T03:57:45.382Z,995.69
2017-06-26T03:58:45.422Z,995.67
2017-06-26T03:59:45.462Z,995.68
2017-06-26T04:00:45.501Z,995.71
2017-06-26T04:01:45.543Z,995.72
2017-06-26T04:02:45.582Z,995.73
2017-06-26T04:03:45.622Z,995.72
2017-06-26T04:04:45.663Z,995.72
2017-06-26T04:05:45.704Z,995.76
2017-06-26T04:06:45.743Z,995.73
2017-06-26T04:07:45.784Z,995.76
2017-06-26T04:08:45.824Z,995.75
2017-06-26T04:09:45.866Z,995.78
2017-06-26T04:10:45.905Z,995.78
2017-06-26T04:11:45.945Z,995.74
2017-06-26T04:12:45.985Z,995.77
2017-06-26T04:13:46.025Z,995.79
2017-06-26T04:14:46.066Z,995.8
2017-06-26T04:15:46.111Z,995.79
2017-06-26T04:16:46.149Z,995.83
2017-06-26T04:17:46.187Z,995.81
2017-06-26T04:18:46.227Z,995.81
2017-06-26T04:19:46.269Z,995.82
2017-06-26T04:20:46.309Z,995.83
2017-06-26T04:21:46.348Z,995.83
2017-06-26T04:22:46.390Z,995.79
2017-06-26T04:23:46.430Z,995.8
2017-06-26T04:24:46.470Z,995.82
2017-06-26T04:25:46.511Z,995.82
2017-06-26T04:26:46.552Z,995.8
2017-06-26T04:27:46.592Z,995.8
2017-06-26T04:28:46.632Z,995.8
2017-06-26T04:29:46.671Z,995.8
2017-06-26T04:30:46.713Z,995.75
2017-06-26T04:31:46.753Z,995.76
2017-06-26T04:32:46.793Z,995.78
2017-06-26T04:33:46.834Z,995.77
2017-06-26T04:34:46.875Z,995.74
2017-06-26T04:35:46.915Z,995.72
2017-06-26T04:36:46.955Z,995.72
2017-06-26T04:37:46.996Z,995.75
2017-06-26T04:38:47.036Z,995.78
2017-06-26T04:39:47.077Z,995.79
2017-06-26T04:40:47.117Z,995.86
2017-06-26T04:41:47.160Z,995.8
2017-06-26T04:42:47.198Z,995.81
2017-06-26T04:43:47.239Z,995.77
2017-06-26T04:44:47.281Z,995.84
2017-06-26T04:45:47.322Z,995.77
2017-06-26T04:46:47.361Z,995.82
2017-06-26T04:47:47.403Z,995.79
2017-06-26T04:48:47.444Z,995.8
2017-06-26T04:49:47.486Z,995.72
2017-06-26T04:50:47.529Z,995.78
2017-06-26T04:51:47.566Z,995.8
2017-06-26T04:52:47.608Z,995.75
2017-06-26T04:53:47.648Z,995.8
2017-06-26T04:54:47.689Z,995.85
2017-06-26T04:55:47.730Z,995.96
2017-06-26T04:56:47.770Z,995.92
2017-06-26T04:57:47.811Z,995.96
2017-06-26T04:58:47.852Z,995.95
2017-06-26T04:59:47.893Z,995.93
2017-06-26T05:00:47.935Z,995.9
2017-06-26T05:01:47.974Z,995.98
2017-06-26T05:02:48.015Z,995.95
2017-06-26T05:03:48.056Z,995.91
2017-06-26T05:04:48.096Z,995.86
2017-06-26T05:05:48.145Z,995.87
2017-06-26T05:06:48.178Z,995.87
2017-06-26T05:07:48.218Z,995.86
2017-06-26T05:08:48.259Z,995.82
2017-06-26T05:09:48.300Z,995.75
2017-06-26T05:10:48.340Z,995.81
2017-06-26T05:11:48.382Z,995.82
2017-06-26T05:12:48.422Z,995.79
2017-06-26T05:13:48.463Z,995.81
2017-06-26T05:14:48.503Z,995.8
2017-06-26T05:15:48.545Z,995.75
2017-06-26T05:16:48.584Z,995.76
2017-06-26T05:17:48.625Z,995.8
2017-06-26T05:18:48.666Z,995.8
2017-06-26T05:19:48.708Z,995.8
2017-06-26T05:20:48.748Z,995.77
2017-06-26T05:21:48.790Z,995.79
2017-06-26T05:22:48.831Z,995.79
2017-06-26T05:23:48.871Z,995.74
2017-06-26T05:24:48.912Z,995.75
2017-06-26T05:25:48.953Z,995.79
2017-06-26T05:26:48.994Z,995.83
2017-06-26T05:27:49.036Z,995.83
2017-06-26T05:28:49.076Z,995.93
2017-06-26T05:29:49.117Z,995.89
2017-06-26T05:30:49.158Z,995.92
2017-06-26T05:31:49.201Z,995.92
2017-06-26T05:32:49.241Z,995.94
2017-06-26T05:33:49.282Z,995.94
2017-06-26T05:34:49.335Z,995.94
2017-06-26T05:35:49.366Z,995.96
2017-06-26T05:36:49.407Z,995.96
2017-06-26T05:37:49.450Z,995.96
2017-06-26T05:38:49.489Z,995.93
2017-06-26T05:39:49.531Z,995.95
2017-06-26T05:40:49.573Z,996.04
2017-06-26T05:41:49.618Z,996.01
2017-06-26T05:42:49.656Z,996.07
2017-06-26T05:43:49.698Z,996.08
2017-06-26T05:44:49.741Z,996.11
2017-06-26T05:45:49.783Z,996.14
2017-06-26T05:46:49.826Z,996.05
2017-06-26T05:47:49.870Z,996.08
2017-06-26T05:48:49.914Z,996.06
2017-06-26T05:49:49.960Z,996.01
2017-06-26T05:50:50.005Z,996.12
2017-06-26T05:51:50.049Z,996.16
2017-06-26T05:52:50.099Z,996.17
2017-06-26T05:53:50.141Z,996.13
2017-06-26T05:54:50.188Z,996.2
2017-06-26T05:55:50.235Z,996.18
2017-06-26T05:56:50.292Z,996.18
2017-06-26T05:57:50.330Z,996.22
2017-06-26T05:58:50.380Z,996.22
2017-06-26T05:59:50.427Z,996.23
2017-06-26T06:00:50.477Z,996.22
2017-06-26T06:01:50.526Z,996.18
2017-06-26T06:02:50.575Z,996.26
2017-06-26T06:03:50.623Z,996.17
2017-06-26T06:04:50.674Z,996.23
2017-06-26T06:05:50.725Z,996.2
2017-06-26T06:06:50.773Z,996.2
2017-06-26T06:07:50.825Z,996.24
2017-06-26T06:08:50.876Z,996.24
2017-06-26T06:09:50.928Z,996.22
2017-06-26T06:10:50.979Z,996.26
2017-06-26T06:11:51.030Z,996.26
2017-06-26T06:12:51.082Z,996.23
2017-06-26T06:13:51.136Z,996.23
2017-06-26T06:14:51.185Z,996.21
2017-06-26T06:15:51.238Z,996.28
2017-06-26T06:16:51.292Z,996.28
2017-06-26T06:17:51.344Z,996.21
2017-06-26T06:18:51.397Z,996.23
2017-06-26T06:19:51.449Z,996.28
2017-06-26T06:20:51.502Z,996.16
2017-06-26T06:21:51.556Z,996.13
2017-06-26T06:22:51.626Z,996.19
2017-06-26T06:23:51.662Z,996.18
2017-06-26T06:24:51.715Z,996.07
2017-06-26T06:25:51.768Z,996.12
2017-06-26T06:26:51.822Z,996.13
2017-06-26T06:27:51.876Z,996.15
2017-06-26T06:28:51.929Z,996.19
2017-06-26T06:29:51.984Z,996.29
2017-06-26T06:30:52.036Z,996.31
2017-06-26T06:31:52.182Z,996.28
2017-06-26T06:32:52.144Z,996.24
2017-06-26T06:33:52.199Z,996.32
2017-06-26T06:34:52.254Z,996.36
2017-06-26T06:35:52.307Z,996.35
2017-06-26T06:36:52.363Z,996.38
2017-06-26T06:37:52.415Z,996.33
2017-06-26T06:38:52.470Z,996.31
2017-06-26T06:39:52.535Z,996.41
2017-06-26T06:40:52.596Z,996.35
2017-06-26T06:41:52.632Z,996.44
2017-06-26T06:42:52.687Z,996.45
2017-06-26T06:43:52.742Z,996.28
2017-06-26T06:44:52.950Z,996.48
2017-06-26T06:45:52.851Z,996.42
2017-06-26T06:46:52.907Z,996.41
2017-06-26T06:47:52.959Z,996.43
2017-06-26T06:48:53.016Z,996.44
2017-06-26T06:49:53.069Z,996.44
2017-06-26T06:50:53.128Z,996.42
2017-06-26T06:51:53.178Z,996.39
2017-06-26T06:52:53.233Z,996.36
2017-06-26T06:53:53.289Z,996.37
2017-06-26T06:54:53.343Z,996.5
2017-06-26T06:55:53.399Z,996.49
2017-06-26T06:56:53.455Z,996.47
2017-06-26T06:57:53.511Z,996.45
2017-06-26T06:58:53.565Z,996.51
2017-06-26T06:59:53.620Z,996.5
2017-06-26T07:00:53.677Z,996.52
2017-06-26T07:01:53.733Z,996.5
2017-06-26T07:02:53.787Z,996.42
2017-06-26T07:03:53.844Z,996.41
2017-06-26T07:04:53.900Z,996.45
2017-06-26T07:05:53.955Z,996.35
2017-06-26T07:06:54.010Z,996.41
2017-06-26T07:07:54.067Z,996.46
2017-06-26T07:08:54.122Z,996.43
2017-06-26T07:09:54.178Z,996.48
2017-06-26T07:10:54.235Z,996.44
2017-06-26T07:11:54.291Z,996.51
2017-06-26T07:12:54.344Z,996.56
2017-06-26T07:13:54.401Z,996.52
2017-06-26T07:14:54.458Z,996.51
2017-06-26T07:15:54.514Z,996.53
2017-06-26T07:16:54.568Z,996.59
2017-06-26T07:17:54.626Z,996.61
2017-06-26T07:18:54.680Z,996.4
2017-06-26T07:19:54.737Z,996.43
2017-06-26T07:20:54.792Z,996.53
2017-06-26T07:21:54.846Z,996.36
2017-06-26T07:22:54.902Z,996.31
2017-06-26T07:23:54.955Z,996.49
2017-06-26T07:24:55.011Z,996.36
2017-06-26T07:25:55.066Z,996.47
2017-06-26T07:26:55.119Z,996.38
2017-06-26T07:27:55.172Z,996.49
2017-06-26T07:28:55.226Z,996.5
2017-06-26T07:29:55.278Z,996.47
2017-06-26T07:30:55.332Z,996.54
2017-06-26T07:31:55.387Z,996.54
2017-06-26T07:32:55.441Z,996.57
2017-06-26T07:33:55.496Z,996.65
2017-06-26T07:34:55.550Z,996.57
2017-06-26T07:35:55.603Z,996.61
2017-06-26T07:36:55.660Z,996.48
2017-06-26T07:37:55.715Z,996.6
2017-06-26T07:38:55.768Z,996.63
2017-06-26T07:39:55.824Z,996.45
2017-06-26T07:40:55.879Z,996.48
2017-06-26T07:41:55.933Z,996.75
2017-06-26T07:42:55.989Z,996.46
2017-06-26T07:43:56.043Z,996.66
2017-06-26T07:44:56.099Z,996.55
2017-06-26T07:45:56.154Z,996.62
2017-06-26T07:46:56.211Z,996.46
2017-06-26T07:47:56.264Z,996.64
2017-06-26T07:48:56.320Z,996.47
2017-06-26T07:49:56.373Z,996.52
2017-06-26T07:50:56.429Z,996.52
2017-06-26T07:51:56.484Z,996.53
2017-06-26T07:52:56.538Z,996.54
2017-06-26T07:53:56.592Z,996.44
2017-06-26T07:54:56.646Z,996.59
2017-06-26T07:55:56.701Z,996.45
2017-06-26T07:56:56.755Z,996.39
2017-06-26T07:57:56.808Z,996.34
2017-06-26T07:58:56.862Z,996.44
2017-06-26T07:59:56.914Z,996.47
2017-06-26T08:00:56.966Z,996.53
2017-06-26T08:01:57.035Z,996.52
2017-06-26T08:02:57.071Z,996.53
2017-06-26T08:03:57.160Z,996.47
2017-06-26T08:04:57.191Z,996.47
2017-06-26T08:05:57.224Z,996.56
2017-06-26T08:06:57.276Z,996.5
2017-06-26T08:07:57.325Z,996.57
2017-06-26T08:08:57.375Z,996.58
2017-06-26T08:09:57.426Z,996.53
2017-06-26T08:10:57.476Z,996.49
2017-06-26T08:11:57.525Z,996.54
2017-06-26T08:12:57.575Z,996.6
2017-06-26T08:13:57.624Z,996.64
2017-06-26T08:14:57.673Z,996.62
2017-06-26T08:15:57.722Z,996.47
2017-06-26T08:16:57.770Z,996.62
2017-06-26T08:17:57.822Z,996.66
2017-06-26T08:18:57.868Z,996.63
2017-06-26T08:19:57.918Z,996.68
2017-06-26T08:20:57.967Z,996.53
2017-06-26T08:21:58.017Z,996.84
2017-06-26T08:22:58.093Z,996.86
2017-06-26T08:23:58.116Z,996.67
2017-06-26T08:24:58.164Z,996.77
2017-06-26T08:25:58.215Z,996.87
2017-06-26T08:26:58.265Z,996.64
2017-06-26T08:27:58.316Z,996.58
2017-06-26T08:28:58.371Z,996.81
2017-06-26T08:29:58.418Z,997
2017-06-26T08:30:58.468Z,996.67
2017-06-26T08:31:58.519Z,996.79
2017-06-26T08:32:58.571Z,996.78
2017-06-26T08:33:58.621Z,996.78
2017-06-26T08:34:58.671Z,997.1
2017-06-26T08:35:58.722Z,996.71
2017-06-26T08:36:58.771Z,996.77
2017-06-26T08:37:58.821Z,996.79
2017-06-26T08:38:58.873Z,996.78
2017-06-26T08:39:58.922Z,996.87
2017-06-26T08:40:58.972Z,996.81
2017-06-26T08:41:59.023Z,996.79
2017-06-26T08:42:59.071Z,996.72
2017-06-26T08:43:59.123Z,996.77
2017-06-26T08:44:59.170Z,996.79
2017-06-26T08:45:59.220Z,996.81
2017-06-26T08:46:59.270Z,996.86
2017-06-26T08:47:59.318Z,996.84
2017-06-26T08:48:59.366Z,996.79
2017-06-26T08:49:59.418Z,996.81
2017-06-26T08:50:59.465Z,996.79
2017-06-26T08:51:59.515Z,996.87
2017-06-26T08:52:59.563Z,996.85
2017-06-26T08:53:59.612Z,996.79
2017-06-26T08:54:59.660Z,996.86
2017-06-26T08:55:59.708Z,996.84
2017-06-26T08:56:59.756Z,996.87
2017-06-26T08:57:59.804Z,996.79
2017-06-26T08:58:59.851Z,996.84
2017-06-26T08:59:59.897Z,996.87
2017-06-26T09:00:59.945Z,996.87
2017-06-26T09:01:59.992Z,996.85
2017-06-26T09:03:00.038Z,996.83
2017-06-26T09:04:00.085Z,996.95
2017-06-26T09:05:00.131Z,997.01
2017-06-26T09:06:00.176Z,996.96
2017-06-26T09:07:00.223Z,996.99
2017-06-26T09:08:00.269Z,996.97
2017-06-26T09:09:00.316Z,997
2017-06-26T09:10:00.359Z,996.98
2017-06-26T09:11:00.408Z,996.99
2017-06-26T09:12:00.450Z,997.11
2017-06-26T09:13:00.495Z,997.05
2017-06-26T09:14:00.539Z,997.05
2017-06-26T09:15:00.584Z,997.11
2017-06-26T09:16:00.630Z,997.12
2017-06-26T09:17:00.674Z,997.12
2017-06-26T09:18:00.717Z,997.13
2017-06-26T09:19:00.762Z,997.04
2017-06-26T09:20:00.806Z,997.08
2017-06-26T09:21:00.854Z,997.08
2017-06-26T09:22:00.897Z,997.1
2017-06-26T09:23:00.941Z,997.06
2017-06-26T09:24:00.985Z,997.11
2017-06-26T09:25:01.028Z,997.08
2017-06-26T09:26:01.074Z,997.15
2017-06-26T09:27:01.118Z,997.13
2017-06-26T09:28:01.160Z,997.13
2017-06-26T09:29:01.205Z,997.16
2017-06-26T09:30:01.250Z,997.24
2017-06-26T09:31:01.293Z,997.2
2017-06-26T09:32:01.337Z,997.22
2017-06-26T09:33:01.380Z,997.28
2017-06-26T09:34:01.424Z,997.26
2017-06-26T09:35:01.469Z,997.32
2017-06-26T09:36:01.511Z,997.29
2017-06-26T09:37:01.555Z,997.32
2017-06-26T09:38:01.600Z,997.34
2017-06-26T09:39:01.642Z,997.29
2017-06-26T09:40:01.684Z,997.38
2017-06-26T09:41:01.727Z,997.39
2017-06-26T09:42:01.771Z,997.38
2017-06-26T09:43:01.816Z,997.35
2017-06-26T09:44:01.858Z,997.35
2017-06-26T09:45:01.902Z,997.39
2017-06-26T09:46:01.945Z,997.37
2017-06-26T09:47:01.987Z,997.38
2017-06-26T09:48:02.031Z,997.46
2017-06-26T09:49:02.074Z,997.46
2017-06-26T09:50:02.115Z,997.45
2017-06-26T09:51:02.160Z,997.51
2017-06-26T09:52:02.202Z,997.56
2017-06-26T09:53:02.244Z,997.57
2017-06-26T09:54:02.288Z,997.65
2017-06-26T09:55:02.329Z,997.63
2017-06-26T09:56:02.374Z,997.65
2017-06-26T09:57:02.417Z,997.58
2017-06-26T09:58:02.459Z,997.66
2017-06-26T09:59:02.502Z,997.66
2017-06-26T10:00:02.543Z,997.71
2017-06-26T10:01:02.587Z,997.69
2017-06-26T10:02:02.629Z,997.69
2017-06-26T10:03:02.677Z,997.72
2017-06-26T10:04:02.716Z,997.71
2017-06-26T10:05:02.757Z,997.7
2017-06-26T10:06:02.799Z,997.7
2017-06-26T10:07:02.841Z,997.68
2017-06-26T10:08:02.884Z,997.69
2017-06-26T10:09:02.927Z,997.74
2017-06-26T10:10:02.970Z,997.72
2017-06-26T10:11:03.012Z,997.78
2017-06-26T10:12:03.054Z,997.79
2017-06-26T10:13:03.099Z,997.78
2017-06-26T10:14:03.140Z,997.82
2017-06-26T10:15:03.182Z,997.84
2017-06-26T10:16:03.223Z,997.91
2017-06-26T10:17:03.399Z,997.93
2017-06-26T10:18:03.407Z,997.99
2017-06-26T10:19:03.354Z,997.97
2017-06-26T10:20:03.395Z,997.97
2017-06-26T10:21:03.438Z,998
2017-06-26T10:22:03.483Z,998.01
2017-06-26T10:23:03.524Z,997.99
2017-06-26T10:24:03.566Z,998.05
2017-06-26T10:25:03.609Z,998.05
2017-06-26T10:26:03.653Z,998.03
2017-06-26T10:27:03.695Z,998.03
2017-06-26T10:28:03.738Z,998.04
2017-06-26T10:29:03.782Z,998
2017-06-26T10:30:03.824Z,997.98
2017-06-26T10:31:03.866Z,997.95
2017-06-26T10:32:05.303Z,997.98
2017-06-26T10:33:03.954Z,998
2017-06-26T10:34:03.997Z,997.96
2017-06-26T10:35:04.039Z,998.04
2017-06-26T10:36:04.083Z,997.99
2017-06-26T10:37:04.125Z,998.05
2017-06-26T10:38:04.168Z,998.06
2017-06-26T10:39:04.210Z,998.04
2017-06-26T10:40:04.255Z,998.02
2017-06-26T10:41:04.297Z,998.01
2017-06-26T10:42:04.341Z,998.03
2017-06-26T10:43:04.384Z,998.07
2017-06-26T10:44:04.427Z,998.05
2017-06-26T10:45:04.469Z,998.06
2017-06-26T10:46:04.511Z,998.09
2017-06-26T10:47:04.554Z,998.08
2017-06-26T10:48:04.599Z,998.09
2017-06-26T10:49:04.640Z,998.08
2017-06-26T10:50:04.686Z,998.08
2017-06-26T10:51:04.727Z,998.1
2017-06-26T10:52:04.769Z,998.11
2017-06-26T10:53:04.812Z,998.1
2017-06-26T10:54:04.872Z,998.12
2017-06-26T10:55:04.899Z,998.12
2017-06-26T10:56:04.942Z,998.09
2017-06-26T10:57:04.985Z,998.12
2017-06-26T10:58:05.029Z,998.12
2017-06-26T10:59:05.072Z,998.21
2017-06-26T11:00:05.113Z,998.18
2017-06-26T11:01:05.158Z,998.21
2017-06-26T11:02:05.202Z,998.2
2017-06-26T11:03:05.244Z,998.25
2017-06-26T11:04:05.287Z,998.24
2017-06-26T11:05:05.330Z,998.26
2017-06-26T11:06:05.376Z,998.27
2017-06-26T11:07:05.416Z,998.29
2017-06-26T11:08:05.459Z,998.29
2017-06-26T11:09:05.502Z,998.32
2017-06-26T11:10:05.546Z,998.37
2017-06-26T11:11:05.586Z,998.39
2017-06-26T11:12:05.631Z,998.39
2017-06-26T11:13:05.674Z,998.45
2017-06-26T11:14:05.716Z,998.47
2017-06-26T11:15:05.759Z,998.51
2017-06-26T11:16:05.801Z,998.57
2017-06-26T11:17:05.844Z,998.54
2017-06-26T11:18:05.887Z,998.63
2017-06-26T11:19:05.931Z,998.61
2017-06-26T11:20:05.973Z,998.6
2017-06-26T11:21:06.016Z,998.58
2017-06-26T11:22:06.056Z,998.63
2017-06-26T11:23:06.100Z,998.65
2017-06-26T11:24:06.141Z,998.68
2017-06-26T11:25:06.185Z,998.65
2017-06-26T11:26:06.228Z,998.69
2017-06-26T11:27:06.269Z,998.67
2017-06-26T11:28:06.311Z,998.66
2017-06-26T11:29:06.354Z,998.65
2017-06-26T11:30:06.399Z,998.65
2017-06-26T11:31:06.439Z,998.63
2017-06-26T11:32:06.481Z,998.66
2017-06-26T11:33:06.521Z,998.67
2017-06-26T11:34:06.566Z,998.61
2017-06-26T11:35:06.607Z,998.61
2017-06-26T11:36:06.648Z,998.59
2017-06-26T11:37:06.691Z,998.59
2017-06-26T11:38:06.734Z,998.64
2017-06-26T11:39:06.777Z,998.59
2017-06-26T11:40:06.817Z,998.59
2017-06-26T11:41:06.861Z,998.6
2017-06-26T11:42:06.905Z,998.57
2017-06-26T11:43:06.947Z,998.59
2017-06-26T11:44:06.990Z,998.57
2017-06-26T11:45:07.033Z,998.51
2017-06-26T11:46:07.079Z,998.53
2017-06-26T11:47:07.122Z,998.56
2017-06-26T11:48:07.170Z,998.53
2017-06-26T11:49:07.206Z,998.53
2017-06-26T11:50:07.250Z,998.5
2017-06-26T11:51:07.293Z,998.5
2017-06-26T11:52:07.336Z,998.51
2017-06-26T11:53:07.381Z,998.51
2017-06-26T11:54:07.423Z,998.52
2017-06-26T11:55:07.466Z,998.48
2017-06-26T11:56:07.509Z,998.49
2017-06-26T11:57:07.554Z,998.5
2017-06-26T11:58:07.596Z,998.52
2017-06-26T11:59:07.642Z,998.44
2017-06-26T12:00:07.683Z,998.43
2017-06-26T12:01:07.728Z,998.46
2017-06-26T12:02:07.771Z,998.5
2017-06-26T12:03:07.815Z,998.5
2017-06-26T12:04:07.857Z,998.52
2017-06-26T12:05:07.904Z,998.52
2017-06-26T12:06:07.946Z,998.55
2017-06-26T12:07:07.991Z,998.46
2017-06-26T12:08:08.036Z,998.48
2017-06-26T12:09:08.078Z,998.51
2017-06-26T12:10:08.122Z,998.56
2017-06-26T12:11:08.194Z,998.54
2017-06-26T12:12:08.212Z,998.48
2017-06-26T12:13:08.255Z,998.54
2017-06-26T12:14:08.300Z,998.54
2017-06-26T12:15:08.343Z,998.53
2017-06-26T12:16:08.389Z,998.57
2017-06-26T12:17:08.433Z,998.55
2017-06-26T12:18:08.480Z,998.55
2017-06-26T12:19:08.524Z,998.55
2017-06-26T12:20:08.565Z,998.51
2017-06-26T12:21:08.611Z,998.47
2017-06-26T12:22:08.655Z,998.47
2017-06-26T12:23:08.705Z,998.49
2017-06-26T12:24:08.744Z,998.45
2017-06-26T12:25:08.788Z,998.47
2017-06-26T12:26:08.843Z,998.47
2017-06-26T12:27:08.875Z,998.48
2017-06-26T12:28:08.921Z,998.5
2017-06-26T12:29:08.966Z,998.48
2017-06-26T12:30:09.010Z,998.47
2017-06-26T12:31:09.054Z,998.45
2017-06-26T12:32:09.098Z,998.48